Time;durP1;ratioP1;P1;durP2;ratioP2;P2;SDS_P1;SDS_P2;PMS_P1;PMS_P2;Temp;Humidity;BMP_temperature;BMP_pressure;BME280_temperature;BME280_humidity;BME280_pressure;Samples;Min_cycle;Max_cycle;Signal;HPM_P1;HPM_P2
2023/11/18 00:01:10;;;;;;;12.90;1.30;;;4.60;99.90;;;;;;4973652;28;20605;-57
2023/11/18 00:03:36;;;;;;;1.00;1.00;;;4.50;99.90;;;;;;4972234;28;20173;-57
2023/11/18 00:06:01;;;;;;;0.50;0.50;;;4.60;99.90;;;;;;4973473;28;20200;-58
2023/11/18 00:08:27;;;;;;;1.40;0.50;;;4.50;99.90;;;;;;4973614;28;20184;-57
2023/11/18 00:10:53;;;;;;;1.50;0.60;;;4.50;99.90;;;;;;4973516;28;20172;-58
2023/11/18 00:13:19;;;;;;;0.30;0.30;;;4.30;99.90;;;;;;4973170;28;20261;-58
2023/11/18 00:15:45;;;;;;;0.60;0.60;;;4.30;99.90;;;;;;4973514;28;20372;-58
2023/11/18 00:18:12;;;;;;;0.55;0.55;;;4.30;99.90;;;;;;4973472;28;20180;-58
2023/11/18 00:20:38;;;;;;;2.22;1.15;;;4.40;99.90;;;;;;4973302;28;20173;-58
2023/11/18 00:23:06;;;;;;;0.57;0.57;;;4.50;99.90;;;;;;4972355;28;20195;-56
2023/11/18 00:25:33;;;;;;;0.95;0.82;;;4.60;99.90;;;;;;4973011;28;20300;-57
2023/11/18 00:27:59;;;;;;;0.40;0.40;;;4.50;99.90;;;;;;4973165;28;20247;-58
2023/11/18 00:30:25;;;;;;;28.77;1.40;;;4.40;99.90;;;;;;4973346;28;20173;-58
2023/11/18 00:32:52;;;;;;;1.23;0.80;;;4.20;99.90;;;;;;4971859;28;20178;-56
2023/11/18 00:35:17;;;;;;;1.40;1.30;;;4.10;99.90;;;;;;4973034;28;20232;-55
2023/11/18 00:37:43;;;;;;;0.40;0.40;;;4.10;99.90;;;;;;4972908;28;20231;-58
2023/11/18 00:40:11;;;;;;;0.50;0.50;;;4.20;99.90;;;;;;4972565;28;20183;-58
2023/11/18 00:42:40;;;;;;;0.50;0.50;;;4.20;99.90;;;;;;4972431;28;20252;-58
2023/11/18 00:45:07;;;;;;;0.40;0.40;;;4.30;99.90;;;;;;4972564;28;20288;-58
2023/11/18 00:47:32;;;;;;;1.63;1.50;;;4.40;99.90;;;;;;4971770;28;20181;-57
2023/11/18 00:49:59;;;;;;;0.67;0.67;;;4.50;99.90;;;;;;4973097;28;20173;-58
2023/11/18 00:52:25;;;;;;;0.50;0.50;;;4.60;99.90;;;;;;4972563;28;20651;-58
2023/11/18 00:54:51;;;;;;;0.60;0.60;;;4.60;99.90;;;;;;4971502;28;20238;-59
2023/11/18 00:57:17;;;;;;;1.80;1.00;;;4.60;99.90;;;;;;4972755;28;20204;-59
2023/11/18 00:59:43;;;;;;;0.40;0.40;;;4.50;99.90;;;;;;4972780;28;20173;-58
2023/11/18 01:02:09;;;;;;;0.40;0.40;;;4.50;99.90;;;;;;4972704;28;20611;-58
2023/11/18 01:04:34;;;;;;;5.90;1.53;;;4.40;99.90;;;;;;4972433;28;20235;-58
2023/11/18 01:07:00;;;;;;;0.37;0.37;;;4.40;99.90;;;;;;4972624;28;20212;-57
2023/11/18 01:09:27;;;;;;;0.50;0.50;;;4.40;99.90;;;;;;4972733;28;20169;-57
2023/11/18 01:11:52;;;;;;;1.05;1.05;;;4.60;99.90;;;;;;4972572;28;20643;-58
2023/11/18 01:14:19;;;;;;;6.17;2.20;;;4.60;99.90;;;;;;4972426;28;20177;-59
2023/11/18 01:16:45;;;;;;;0.60;0.60;;;4.60;99.90;;;;;;4971414;28;20212;-59
2023/11/18 01:19:11;;;;;;;0.40;0.40;;;4.60;99.90;;;;;;4972555;28;20239;-58
2023/11/18 01:21:36;;;;;;;1.00;1.00;;;4.60;99.90;;;;;;4972613;28;20276;-58
2023/11/18 01:24:02;;;;;;;2.93;0.80;;;4.60;99.90;;;;;;4972075;28;20177;-56
2023/11/18 01:26:28;;;;;;;1.83;1.63;;;4.60;99.90;;;;;;4971279;28;20227;-58
2023/11/18 01:28:54;;;;;;;2.87;1.43;;;4.60;99.90;;;;;;4972566;28;20411;-58
2023/11/18 01:31:21;;;;;;;1.30;1.30;;;4.70;99.90;;;;;;4972473;28;20288;-57
2023/11/18 01:33:50;;;;;;;0.90;0.90;;;4.70;99.90;;;;;;4972181;28;20220;-56
2023/11/18 01:36:15;;;;;;;1.02;1.02;;;4.80;99.90;;;;;;4975880;28;20204;-56
2023/11/18 01:38:41;;;;;;;0.60;0.60;;;4.90;99.90;;;;;;4976289;28;20196;-57
2023/11/18 01:41:07;;;;;;;0.70;0.60;;;4.80;99.90;;;;;;4976327;28;20268;-58
2023/11/18 01:43:33;;;;;;;0.70;0.68;;;4.90;99.90;;;;;;4975967;28;20165;-57
2023/11/18 01:46:01;;;;;;;1.20;0.82;;;4.90;99.90;;;;;;4976171;28;20224;-58
2023/11/18 01:48:29;;;;;;;2.05;1.42;;;4.80;99.90;;;;;;4975008;28;20169;-58
2023/11/18 01:50:57;;;;;;;1.80;1.65;;;4.80;99.90;;;;;;4974492;28;20185;-59
2023/11/18 01:53:24;;;;;;;1.58;1.48;;;4.80;99.90;;;;;;4975089;28;20185;-59
2023/11/18 01:55:50;;;;;;;1.15;1.15;;;4.90;99.90;;;;;;4975821;28;20308;-59
2023/11/18 01:58:19;;;;;;;1.67;1.58;;;4.90;99.90;;;;;;4976099;28;20200;-58
2023/11/18 02:00:46;;;;;;;1.10;1.10;;;4.90;99.90;;;;;;4975843;28;20173;-58
2023/11/18 02:03:12;;;;;;;0.93;0.93;;;5.00;99.90;;;;;;4975624;28;20583;-59
2023/11/18 02:05:38;;;;;;;0.88;0.88;;;5.00;99.90;;;;;;4975684;28;20220;-59
2023/11/18 02:08:08;;;;;;;0.77;0.77;;;5.00;99.90;;;;;;4975999;28;20191;-58
2023/11/18 02:10:39;;;;;;;0.30;0.30;;;5.00;99.90;;;;;;4975762;28;20197;-58
2023/11/18 02:13:12;;;;;;;1.35;0.73;;;4.90;99.90;;;;;;4974262;28;20184;-57
2023/11/18 02:15:39;;;;;;;2.45;0.93;;;5.00;99.90;;;;;;4975590;28;20205;-56
2023/11/18 02:18:09;;;;;;;0.70;0.70;;;5.00;99.90;;;;;;4975450;28;20228;-59
2023/11/18 02:20:35;;;;;;;0.40;0.40;;;4.90;99.90;;;;;;4975800;28;20244;-58
2023/11/18 02:23:02;;;;;;;1.13;1.02;;;4.90;99.90;;;;;;4975281;28;20184;-58
2023/11/18 02:25:32;;;;;;;0.63;0.57;;;4.90;99.90;;;;;;4974090;28;20283;-58
2023/11/18 02:27:58;;;;;;;1.45;0.85;;;4.80;99.90;;;;;;4975482;28;20176;-58
2023/11/18 02:30:24;;;;;;;0.70;0.70;;;4.80;99.90;;;;;;4975438;28;20184;-58
2023/11/18 02:33:14;;;;;;;0.82;0.82;;;4.80;99.90;;;;;;4975037;28;20779;-58
2023/11/18 02:35:48;;;;;;;0.55;0.55;;;4.80;99.90;;;;;;4975160;28;20357;-59
2023/11/18 02:38:23;;;;;;;0.82;0.70;;;4.70;99.90;;;;;;4975300;28;20166;-58
2023/11/18 02:40:53;;;;;;;0.60;0.60;;;4.70;99.90;;;;;;4975250;28;20183;-58
2023/11/18 02:43:19;;;;;;;0.40;0.40;;;4.80;99.90;;;;;;4974871;28;20652;-59
2023/11/18 02:45:46;;;;;;;0.52;0.52;;;4.90;99.90;;;;;;4974630;28;20192;-56
2023/11/18 02:48:13;;;;;;;1.00;0.70;;;4.90;99.90;;;;;;4974719;28;20534;-58
2023/11/18 02:50:41;;;;;;;0.30;0.30;;;4.90;99.90;;;;;;4974987;28;20561;-58
2023/11/18 02:53:09;;;;;;;0.50;0.50;;;4.80;99.90;;;;;;4974782;28;20176;-58
2023/11/18 02:55:35;;;;;;;0.93;0.40;;;4.90;99.90;;;;;;4974878;28;20219;-58
2023/11/18 02:58:02;;;;;;;0.57;0.57;;;4.80;99.90;;;;;;4974861;28;20189;-58
2023/11/18 03:00:28;;;;;;;0.80;0.40;;;4.80;99.90;;;;;;4974940;28;20715;-58
2023/11/18 03:02:54;;;;;;;0.50;0.50;;;4.70;99.90;;;;;;4973386;28;20242;-56
2023/11/18 03:05:21;;;;;;;0.50;0.50;;;4.80;99.90;;;;;;4974892;28;20218;-58
2023/11/18 03:07:50;;;;;;;1.40;0.98;;;4.80;99.90;;;;;;4974861;28;20172;-59
2023/11/18 03:10:21;;;;;;;0.40;0.40;;;4.90;99.90;;;;;;4974715;28;20260;-58
2023/11/18 03:12:52;;;;;;;1.42;1.42;;;4.80;99.90;;;;;;4974466;28;20550;-55
2023/11/18 03:15:18;;;;;;;1.73;1.38;;;4.70;99.90;;;;;;4973585;28;20201;-58
2023/11/18 03:17:51;;;;;;;0.52;0.50;;;4.60;99.90;;;;;;4973284;28;20259;-59
2023/11/18 03:20:18;;;;;;;2.28;1.05;;;4.60;99.90;;;;;;4973301;28;20193;-58
2023/11/18 03:22:44;;;;;;;0.40;0.40;;;4.60;99.90;;;;;;4974112;28;20192;-59
2023/11/18 03:25:11;;;;;;;1.23;1.10;;;4.50;99.90;;;;;;4996962;23;20266;-58
2023/11/18 03:27:37;;;;;;;1.55;1.17;;;4.50;99.90;;;;;;4994377;28;20184;-58
2023/11/18 03:30:03;;;;;;;1.47;1.37;;;4.60;99.90;;;;;;4993908;28;20561;-58
2023/11/18 03:32:28;;;;;;;0.65;0.60;;;4.60;99.90;;;;;;4993645;28;20180;-58
2023/11/18 03:34:57;;;;;;;1.17;1.17;;;4.70;99.90;;;;;;4993816;28;20188;-57
2023/11/18 03:37:23;;;;;;;1.83;1.75;;;4.70;99.90;;;;;;4993697;28;20235;-58
2023/11/18 03:39:48;;;;;;;1.35;0.68;;;4.80;99.90;;;;;;4993738;28;20176;-58
2023/11/18 03:42:15;;;;;;;0.87;0.87;;;4.80;99.90;;;;;;4975998;28;20199;-58
2023/11/18 03:44:41;;;;;;;0.40;0.40;;;4.80;99.90;;;;;;4993580;28;20411;-58
2023/11/18 03:47:06;;;;;;;0.50;0.50;;;4.90;99.90;;;;;;4993624;28;20177;-58
2023/11/18 03:49:32;;;;;;;0.30;0.30;;;4.90;99.90;;;;;;4993665;28;20541;-58
2023/11/18 03:51:58;;;;;;;0.40;0.40;;;4.90;99.90;;;;;;4992991;28;20271;-58
2023/11/18 03:54:24;;;;;;;2.03;1.93;;;4.90;99.90;;;;;;4975920;28;20194;-58
2023/11/18 03:56:50;;;;;;;0.40;0.40;;;4.90;99.90;;;;;;4993181;28;20754;-58
2023/11/18 03:59:15;;;;;;;0.47;0.47;;;5.00;99.90;;;;;;4992350;28;20176;-58
2023/11/18 04:01:42;;;;;;;0.50;0.50;;;5.10;99.90;;;;;;4992513;28;20176;-58
2023/11/18 04:04:08;;;;;;;0.63;0.63;;;5.10;99.90;;;;;;4993083;28;20172;-58
2023/11/18 04:06:34;;;;;;;2.40;1.30;;;5.10;99.90;;;;;;4993164;28;20284;-58
2023/11/18 04:08:59;;;;;;;0.67;0.67;;;5.10;99.90;;;;;;4993272;28;20231;-58
2023/11/18 04:11:25;;;;;;;1.23;1.13;;;5.10;99.90;;;;;;4993233;28;20175;-58
2023/11/18 04:13:51;;;;;;;1.07;0.73;;;5.10;99.90;;;;;;4992853;28;20184;-57
2023/11/18 04:16:16;;;;;;;0.63;0.63;;;5.10;99.90;;;;;;4975549;28;20213;-58
2023/11/18 04:18:43;;;;;;;0.65;0.65;;;5.10;99.90;;;;;;4993135;28;20172;-58
2023/11/18 04:21:10;;;;;;;0.65;0.60;;;5.20;99.90;;;;;;4992977;28;20168;-58
2023/11/18 04:23:41;;;;;;;0.40;0.40;;;5.10;99.90;;;;;;4992736;28;20172;-58
2023/11/18 04:26:07;;;;;;;0.73;0.60;;;5.10;99.90;;;;;;4992811;28;20786;-58
2023/11/18 04:28:34;;;;;;;0.50;0.50;;;5.00;99.90;;;;;;4992879;28;20646;-58
2023/11/18 04:31:00;;;;;;;0.40;0.40;;;5.00;99.90;;;;;;4992943;28;20254;-58
2023/11/18 04:33:26;;;;;;;0.40;0.40;;;4.90;99.90;;;;;;4992594;28;20650;-58
2023/11/18 04:35:52;;;;;;;0.40;0.40;;;4.80;99.90;;;;;;4975107;28;20298;-58
2023/11/18 04:38:21;;;;;;;0.40;0.40;;;4.70;99.90;;;;;;4975384;28;20248;-58
2023/11/18 04:40:47;;;;;;;0.60;0.50;;;4.70;99.90;;;;;;4992700;28;20420;-58
2023/11/18 04:43:12;;;;;;;0.30;0.30;;;4.60;99.90;;;;;;4992173;28;20180;-58
2023/11/18 04:45:39;;;;;;;0.40;0.40;;;4.50;99.90;;;;;;4992602;28;20202;-58
2023/11/18 04:48:05;;;;;;;0.57;0.57;;;4.40;99.90;;;;;;4992667;28;20230;-58
2023/11/18 04:50:32;;;;;;;0.82;0.82;;;4.40;99.90;;;;;;4992423;28;20184;-58
2023/11/18 04:52:58;;;;;;;0.77;0.77;;;4.30;99.90;;;;;;4992483;28;20181;-58
2023/11/18 04:55:25;;;;;;;0.57;0.57;;;4.40;99.90;;;;;;4992388;28;20262;-58
2023/11/18 04:57:51;;;;;;;0.30;0.30;;;4.40;99.90;;;;;;4975429;28;20203;-58
2023/11/18 05:00:19;;;;;;;0.50;0.47;;;4.30;99.90;;;;;;4992497;28;20168;-58
2023/11/18 05:02:48;;;;;;;0.60;0.60;;;4.20;99.90;;;;;;4992167;28;20415;-56
2023/11/18 05:05:15;;;;;;;1.35;1.25;;;4.10;99.90;;;;;;4975297;28;20279;-58
2023/11/18 05:07:42;;;;;;;19.58;1.63;;;4.10;99.90;;;;;;4975210;28;20176;-58
2023/11/18 05:10:08;;;;;;;0.50;0.50;;;4.10;99.90;;;;;;4974820;28;20262;-58
2023/11/18 05:12:34;;;;;;;0.40;0.40;;;4.20;99.90;;;;;;4992089;28;20176;-58
2023/11/18 05:15:00;;;;;;;0.40;0.40;;;4.30;99.90;;;;;;4992305;28;20700;-57
2023/11/18 05:17:26;;;;;;;0.40;0.40;;;4.20;99.90;;;;;;4992166;28;20200;-58
2023/11/18 05:19:53;;;;;;;0.63;0.63;;;4.30;99.90;;;;;;4975101;28;20192;-58
2023/11/18 05:22:20;;;;;;;3.42;0.98;;;4.30;99.90;;;;;;4991972;28;20674;-58
2023/11/18 05:24:50;;;;;;;0.88;0.88;;;4.40;99.90;;;;;;4992005;28;20263;-58
2023/11/18 05:27:17;;;;;;;4.10;0.95;;;4.40;99.90;;;;;;4992198;28;20594;-58
2023/11/18 05:29:45;;;;;;;0.68;0.68;;;4.40;99.90;;;;;;4974687;28;20176;-58
2023/11/18 05:32:10;;;;;;;0.40;0.40;;;4.40;99.90;;;;;;4974794;28;20611;-58
2023/11/18 05:34:36;;;;;;;0.50;0.50;;;4.30;99.90;;;;;;4992086;28;20168;-58
2023/11/18 05:37:02;;;;;;;0.50;0.47;;;4.30;99.90;;;;;;4992036;28;20207;-58
2023/11/18 05:39:31;;;;;;;0.40;0.40;;;4.20;99.90;;;;;;4992250;28;20263;-58
2023/11/18 05:41:59;;;;;;;0.80;0.80;;;4.20;99.90;;;;;;4991965;28;20597;-58
2023/11/18 05:44:37;;;;;;;1.13;1.02;;;4.20;99.90;;;;;;4991901;28;20199;-58
2023/11/18 05:47:03;;;;;;;0.40;0.40;;;4.10;99.90;;;;;;4992303;28;20181;-58
2023/11/18 05:49:29;;;;;;;0.40;0.40;;;4.10;99.90;;;;;;4992221;28;20256;-58
2023/11/18 05:51:54;;;;;;;0.70;0.63;;;4.10;99.90;;;;;;4974699;28;20785;-58
2023/11/18 05:54:20;;;;;;;0.60;0.60;;;4.10;99.90;;;;;;4991818;28;20183;-57
2023/11/18 05:56:46;;;;;;;0.40;0.40;;;4.00;99.90;;;;;;4974337;28;20230;-58
2023/11/18 05:59:13;;;;;;;0.30;0.30;;;4.00;99.90;;;;;;4991900;28;20252;-58
2023/11/18 06:01:39;;;;;;;0.50;0.50;;;4.00;99.90;;;;;;4991885;28;20469;-58
2023/11/18 06:04:08;;;;;;;0.40;0.40;;;4.10;99.90;;;;;;4991807;28;20267;-57
2023/11/18 06:06:33;;;;;;;0.30;0.30;;;4.00;99.90;;;;;;4974948;28;20338;-58
2023/11/18 06:09:04;;;;;;;0.70;0.60;;;3.90;99.90;;;;;;4991838;28;20263;-58
2023/11/18 06:11:31;;;;;;;0.77;0.77;;;3.90;99.90;;;;;;4974279;28;20477;-58
2023/11/18 06:13:57;;;;;;;0.55;0.55;;;3.90;99.90;;;;;;4991736;28;20188;-58
2023/11/18 06:16:24;;;;;;;0.50;0.50;;;4.00;99.90;;;;;;4991630;28;20204;-58
2023/11/18 06:18:53;;;;;;;0.60;0.60;;;3.90;99.90;;;;;;4992127;28;20650;-58
2023/11/18 06:21:33;;;;;;;0.70;0.70;;;3.90;99.90;;;;;;4992289;28;20244;-58
2023/11/18 06:24:00;;;;;;;0.52;0.52;;;3.80;99.90;;;;;;4995000;28;20183;-57
2023/11/18 06:26:29;;;;;;;0.63;0.63;;;3.90;99.90;;;;;;4994910;28;20697;-58
2023/11/18 06:28:55;;;;;;;0.45;0.45;;;4.00;99.90;;;;;;4995155;28;20176;-58
2023/11/18 06:31:23;;;;;;;0.50;0.50;;;4.00;99.90;;;;;;4995076;28;20176;-58
2023/11/18 06:33:49;;;;;;;1.02;1.02;;;4.00;99.90;;;;;;4994723;28;20187;-58
2023/11/18 06:36:16;;;;;;;0.63;0.63;;;4.10;99.90;;;;;;4994862;28;20208;-57
2023/11/18 06:38:53;;;;;;;0.50;0.50;;;4.10;99.90;;;;;;4994912;28;20909;-58
2023/11/18 06:41:23;;;;;;;0.63;0.63;;;4.20;99.90;;;;;;4994820;28;20242;-58
2023/11/18 06:46:25;;;;;;;0.88;0.73;;;4.30;99.90;;;;;;4994774;28;20199;-58
2023/11/18 06:48:54;;;;;;;0.80;0.80;;;4.30;99.90;;;;;;4994763;28;20181;-58
2023/11/18 06:51:24;;;;;;;0.90;0.90;;;4.40;99.90;;;;;;4961215;28;20184;-58
2023/11/18 06:53:56;;;;;;;1.50;1.10;;;4.40;99.90;;;;;;4994632;28;20184;-58
2023/11/18 06:56:23;;;;;;;0.70;0.52;;;4.40;99.90;;;;;;4994629;28;20677;-58
2023/11/18 06:58:49;;;;;;;1.50;0.80;;;4.50;99.90;;;;;;4994709;28;20176;-58
2023/11/18 07:01:15;;;;;;;0.70;0.70;;;4.60;99.90;;;;;;4994460;28;20572;-58
2023/11/18 07:03:45;;;;;;;0.70;0.70;;;4.70;99.90;;;;;;4994188;28;20240;-58
2023/11/18 07:06:14;;;;;;;2.47;1.85;;;4.80;99.90;;;;;;4994382;28;20192;-58
2023/11/18 07:08:40;;;;;;;0.50;0.50;;;4.90;99.90;;;;;;4994370;28;20179;-58
2023/11/18 07:11:06;;;;;;;1.48;1.48;;;4.90;99.90;;;;;;4994319;28;20169;-58
2023/11/18 07:13:34;;;;;;;0.50;0.50;;;4.90;99.90;;;;;;4993836;28;20187;-58
2023/11/18 07:16:03;;;;;;;0.60;0.60;;;5.00;99.90;;;;;;4994164;28;20599;-58
2023/11/18 07:18:32;;;;;;;2.25;1.27;;;5.10;99.90;;;;;;4994109;28;20189;-57
2023/11/18 07:21:03;;;;;;;0.50;0.50;;;5.20;99.90;;;;;;4994199;28;20252;-58
2023/11/18 07:23:29;;;;;;;1.60;1.50;;;5.30;99.90;;;;;;4993899;28;20297;-58
2023/11/18 07:25:56;;;;;;;0.30;0.30;;;5.30;99.90;;;;;;4993921;28;20753;-58
2023/11/18 07:28:22;;;;;;;1.90;1.80;;;5.40;99.90;;;;;;4994105;28;20171;-57
2023/11/18 07:30:48;;;;;;;1.50;1.40;;;5.40;99.90;;;;;;4993932;28;20690;-58
2023/11/18 07:33:15;;;;;;;1.47;1.47;;;5.50;99.90;;;;;;4993325;28;20176;-58
2023/11/18 07:35:41;;;;;;;5.45;2.20;;;5.70;99.90;;;;;;4993779;28;20563;-58
2023/11/18 07:38:07;;;;;;;1.70;1.60;;;6.00;99.90;;;;;;4993861;28;20178;-58
2023/11/18 07:40:33;;;;;;;2.77;2.37;;;6.20;99.90;;;;;;4993805;28;20168;-58
2023/11/18 07:43:02;;;;;;;4.65;3.40;;;6.40;99.90;;;;;;4993443;28;20186;-59
2023/11/18 07:45:34;;;;;;;3.22;2.58;;;6.80;99.90;;;;;;4993540;28;20187;-58
2023/11/18 07:48:00;;;;;;;1.95;1.35;;;7.30;99.90;;;;;;4993679;28;20549;-58
2023/11/18 07:50:26;;;;;;;0.90;0.90;;;7.60;99.60;;;;;;4993620;28;20176;-58
2023/11/18 07:52:52;;;;;;;0.80;0.80;;;7.70;98.90;;;;;;4972327;28;20607;-58
2023/11/18 07:55:18;;;;;;;0.90;0.90;;;7.80;98.60;;;;;;4989964;28;20196;-58
2023/11/18 07:57:44;;;;;;;9.50;1.60;;;7.90;98.20;;;;;;4993538;28;20180;-58
2023/11/18 08:00:10;;;;;;;1.03;1.03;;;8.20;98.30;;;;;;4993440;28;20574;-58
2023/11/18 08:02:36;;;;;;;1.50;1.40;;;8.30;96.60;;;;;;4993159;28;20173;-58
2023/11/18 08:05:03;;;;;;;0.93;0.93;;;8.30;96.40;;;;;;4993244;28;20203;-58
2023/11/18 08:07:30;;;;;;;0.98;0.98;;;8.20;96.20;;;;;;4993182;28;20183;-58
2023/11/18 08:09:56;;;;;;;1.20;1.10;;;8.00;96.20;;;;;;4993223;28;20262;-58
2023/11/18 08:12:23;;;;;;;0.80;0.68;;;7.80;96.30;;;;;;4975863;28;20173;-58
2023/11/18 08:14:50;;;;;;;0.40;0.40;;;7.60;96.50;;;;;;4993018;28;20211;-58
2023/11/18 08:17:15;;;;;;;1.75;1.23;;;7.50;97.10;;;;;;4993000;28;20203;-58
2023/11/18 08:19:41;;;;;;;1.53;1.43;;;7.40;97.50;;;;;;4975810;28;20182;-58
2023/11/18 08:22:09;;;;;;;2.03;1.10;;;7.50;97.80;;;;;;4975472;28;20566;-58
2023/11/18 08:24:36;;;;;;;1.27;1.27;;;7.70;98.00;;;;;;4992746;28;20326;-58
2023/11/18 08:27:03;;;;;;;2.75;1.20;;;7.80;98.20;;;;;;4992780;28;20254;-58
2023/11/18 08:29:31;;;;;;;2.03;1.90;;;8.10;97.40;;;;;;4975509;28;20174;-58
2023/11/18 08:31:57;;;;;;;0.95;0.95;;;8.30;96.90;;;;;;4993037;28;20196;-58
2023/11/18 08:34:25;;;;;;;1.57;1.47;;;8.60;96.60;;;;;;4992523;28;20176;-58
2023/11/18 08:36:51;;;;;;;1.27;1.17;;;8.70;96.30;;;;;;4992735;28;20196;-58
2023/11/18 08:39:20;;;;;;;0.77;0.65;;;8.70;96.00;;;;;;4992773;28;20179;-58
2023/11/18 08:41:46;;;;;;;0.75;0.57;;;8.60;96.60;;;;;;4992618;28;20626;-58
2023/11/18 08:44:15;;;;;;;0.60;0.60;;;8.60;97.10;;;;;;4991688;28;20204;-58
2023/11/18 08:46:42;;;;;;;0.90;0.90;;;8.80;96.90;;;;;;4992620;28;20203;-58
2023/11/18 08:49:10;;;;;;;6.57;1.80;;;9.00;96.50;;;;;;4992663;28;20219;-58
2023/11/18 08:51:38;;;;;;;1.63;1.45;;;9.10;96.30;;;;;;4992512;28;20188;-58
2023/11/18 08:54:22;;;;;;;0.98;0.80;;;9.30;96.30;;;;;;4992195;28;20287;-58
2023/11/18 08:56:50;;;;;;;1.10;1.10;;;9.40;96.00;;;;;;4992409;28;20552;-58
2023/11/18 08:59:24;;;;;;;1.20;1.10;;;9.50;95.50;;;;;;4992539;28;20226;-58
2023/11/18 09:01:55;;;;;;;0.98;0.93;;;9.40;95.00;;;;;;4975087;28;20222;-59
2023/11/18 09:04:28;;;;;;;1.17;0.60;;;9.30;95.40;;;;;;4992210;28;20650;-58
2023/11/18 09:06:54;;;;;;;5.95;0.93;;;9.40;95.70;;;;;;4991055;28;20284;-58
2023/11/18 09:09:26;;;;;;;0.60;0.60;;;9.40;95.60;;;;;;4992427;28;20184;-58
2023/11/18 09:11:56;;;;;;;1.07;0.97;;;9.30;96.00;;;;;;4991194;28;20656;-58
2023/11/18 09:14:26;;;;;;;1.08;1.00;;;9.40;95.90;;;;;;4991664;28;20419;-58
2023/11/18 09:16:55;;;;;;;0.90;0.82;;;9.50;95.60;;;;;;4992244;28;20215;-58
2023/11/18 09:19:21;;;;;;;1.02;1.02;;;9.50;95.70;;;;;;4992200;28;20259;-58
2023/11/18 09:21:47;;;;;;;0.98;0.65;;;9.50;96.00;;;;;;4992245;28;20183;-58
2023/11/18 09:24:14;;;;;;;0.40;0.40;;;9.50;95.50;;;;;;4992006;28;20184;-58
2023/11/18 09:26:40;;;;;;;0.60;0.60;;;9.30;95.40;;;;;;5031562;23;20245;-59
2023/11/18 09:29:08;;;;;;;1.05;0.70;;;9.20;95.90;;;;;;4972621;28;20247;-59
2023/11/18 09:31:37;;;;;;;0.70;0.70;;;9.10;96.50;;;;;;4972291;28;20169;-58
2023/11/18 09:34:06;;;;;;;1.17;1.08;;;9.20;97.20;;;;;;4972252;28;20177;-59
2023/11/18 09:36:33;;;;;;;1.48;1.38;;;9.20;97.50;;;;;;4972469;28;20225;-59
2023/11/18 09:38:59;;;;;;;1.17;1.17;;;9.30;97.10;;;;;;4972472;28;20184;-59
2023/11/18 09:41:26;;;;;;;0.82;0.82;;;9.40;96.60;;;;;;4972697;28;20181;-58
2023/11/18 09:43:54;;;;;;;1.03;0.80;;;9.40;96.20;;;;;;4954984;28;20655;-58
2023/11/18 09:46:24;;;;;;;1.67;1.58;;;9.30;96.30;;;;;;4972361;28;20521;-59
2023/11/18 09:48:59;;;;;;;0.73;0.73;;;9.30;96.50;;;;;;4972542;28;20553;-59
2023/11/18 09:51:29;;;;;;;0.63;0.63;;;9.50;96.60;;;;;;4972516;28;20177;-58
2023/11/18 09:54:05;;;;;;;1.10;0.80;;;9.50;96.00;;;;;;4972164;28;20177;-58
2023/11/18 09:57:08;;;;;;;0.60;0.60;;;9.30;95.30;;;;;;4974548;28;20634;-58
2023/11/18 09:59:47;;;;;;;0.60;0.60;;;9.20;95.60;;;;;;4974206;28;20267;-59
2023/11/18 10:02:14;;;;;;;0.45;0.45;;;9.20;96.00;;;;;;4975826;28;20586;-59
2023/11/18 10:04:41;;;;;;;0.30;0.30;;;9.20;96.00;;;;;;4957946;28;20227;-58
2023/11/18 10:07:10;;;;;;;0.40;0.40;;;9.10;96.00;;;;;;4975536;28;20191;-58
2023/11/18 10:09:39;;;;;;;0.40;0.40;;;9.00;96.10;;;;;;4975750;28;20428;-59
2023/11/18 10:12:16;;;;;;;0.98;0.82;;;8.80;96.70;;;;;;4975627;28;20180;-59
2023/11/18 10:14:45;;;;;;;0.40;0.40;;;8.60;97.90;;;;;;4975751;28;20168;-59
2023/11/18 10:17:14;;;;;;;0.40;0.40;;;8.70;97.30;;;;;;4975702;28;20208;-59
2023/11/18 10:20:12;;;;;;;0.40;0.40;;;8.60;96.80;;;;;;4975921;28;20177;-59
2023/11/18 10:22:38;;;;;;;6.90;3.03;;;8.60;96.70;;;;;;4975714;28;20181;-59
2023/11/18 10:25:06;;;;;;;0.40;0.40;;;8.70;96.90;;;;;;4975511;28;20251;-59
2023/11/18 10:27:34;;;;;;;0.63;0.63;;;8.70;97.20;;;;;;4975623;28;20255;-59
2023/11/18 10:30:18;;;;;;;0.40;0.40;;;8.80;97.00;;;;;;4975524;28;20193;-59
2023/11/18 10:33:05;;;;;;;0.43;0.43;;;8.90;96.70;;;;;;4975735;28;20173;-58
2023/11/18 10:35:33;;;;;;;6.75;0.82;;;9.10;96.90;;;;;;4975339;28;20741;-59
2023/11/18 10:38:04;;;;;;;0.50;0.50;;;9.20;96.10;;;;;;4975410;28;20213;-58
2023/11/18 10:40:34;;;;;;;0.93;0.63;;;9.20;96.20;;;;;;4975411;28;20184;-57
2023/11/18 10:43:01;;;;;;;0.55;0.55;;;9.30;96.00;;;;;;4975011;28;20192;-58
2023/11/18 10:45:27;;;;;;;0.50;0.50;;;9.30;95.90;;;;;;4975267;28;20200;-59
2023/11/18 10:47:55;;;;;;;0.52;0.52;;;9.40;96.00;;;;;;4974423;28;20206;-59
2023/11/18 10:50:31;;;;;;;0.50;0.50;;;9.40;95.50;;;;;;4975223;28;20541;-59
2023/11/18 10:53:01;;;;;;;0.75;0.75;;;9.30;95.50;;;;;;4975141;28;20260;-59
2023/11/18 10:55:37;;;;;;;1.77;0.50;;;9.40;95.90;;;;;;4975176;28;20252;-58
2023/11/18 10:58:04;;;;;;;0.40;0.40;;;9.40;96.90;;;;;;4975061;28;20678;-58
2023/11/18 11:00:49;;;;;;;0.40;0.40;;;9.40;96.90;;;;;;4974907;28;20212;-58
2023/11/18 11:03:16;;;;;;;0.50;0.50;;;9.40;97.30;;;;;;4957139;28;20247;-58
2023/11/18 11:05:43;;;;;;;0.40;0.35;;;9.40;97.20;;;;;;4975019;28;20910;-59
2023/11/18 11:08:13;;;;;;;0.50;0.50;;;9.20;97.60;;;;;;4974123;28;20659;-59
2023/11/18 11:10:43;;;;;;;0.60;0.40;;;9.00;97.90;;;;;;4974876;28;20193;-59
2023/11/18 11:13:09;;;;;;;0.70;0.65;;;8.80;97.30;;;;;;4957155;28;20416;-59
2023/11/18 11:15:42;;;;;;;0.40;0.40;;;8.80;97.30;;;;;;4974386;28;20231;-59
2023/11/18 11:18:15;;;;;;;0.40;0.40;;;8.80;97.40;;;;;;4957421;28;20204;-58
2023/11/18 11:21:15;;;;;;;0.50;0.50;;;8.90;97.90;;;;;;4974706;28;20466;-59
2023/11/18 11:23:54;;;;;;;0.90;0.70;;;8.80;98.30;;;;;;4969820;28;20673;-58
2023/11/18 11:26:41;;;;;;;0.98;0.98;;;8.80;98.80;;;;;;4974355;28;20500;-58
2023/11/18 11:29:46;;;;;;;1.95;0.70;;;8.80;98.90;;;;;;4974811;28;20181;-59
2023/11/18 11:32:24;;;;;;;0.60;0.60;;;8.70;98.90;;;;;;4974054;28;20181;-59
2023/11/18 11:34:56;;;;;;;0.73;0.50;;;8.70;99.20;;;;;;4974411;28;20168;-59
2023/11/18 11:37:25;;;;;;;0.40;0.40;;;8.60;99.30;;;;;;4974382;28;20209;-59
2023/11/18 11:39:55;;;;;;;0.40;0.40;;;8.60;99.10;;;;;;4974249;28;20248;-59
2023/11/18 11:42:21;;;;;;;0.73;0.73;;;8.50;98.50;;;;;;4973740;28;20685;-59
2023/11/18 11:44:49;;;;;;;1.13;0.93;;;8.60;98.90;;;;;;4974058;28;20173;-58
2023/11/18 11:47:16;;;;;;;0.30;0.30;;;8.60;98.90;;;;;;4974243;28;20272;-59
2023/11/18 11:49:52;;;;;;;0.57;0.57;;;8.60;98.80;;;;;;4974046;28;20179;-58
2023/11/18 11:52:29;;;;;;;1.23;1.13;;;8.60;99.20;;;;;;4973692;28;20215;-59
2023/11/18 11:55:23;;;;;;;0.40;0.40;;;8.70;99.20;;;;;;4973934;28;20212;-59
2023/11/18 11:57:58;;;;;;;0.40;0.40;;;8.80;98.90;;;;;;4964117;28;20217;-58
2023/11/18 12:00:25;;;;;;;0.43;0.43;;;8.80;98.20;;;;;;4973851;28;20454;-58
2023/11/18 12:02:56;;;;;;;0.70;0.70;;;8.90;98.20;;;;;;4973201;28;20272;-58
2023/11/18 12:05:25;;;;;;;1.25;1.15;;;9.00;98.20;;;;;;4973656;28;20189;-59
2023/11/18 12:07:55;;;;;;;1.35;0.60;;;9.10;98.10;;;;;;4973597;28;20279;-59
2023/11/18 12:10:21;;;;;;;1.00;1.00;;;9.30;98.10;;;;;;4973519;28;20690;-59
2023/11/18 12:12:48;;;;;;;1.10;0.68;;;9.20;97.80;;;;;;4973456;28;20188;-59
2023/11/18 12:15:21;;;;;;;3.83;1.92;;;9.20;97.80;;;;;;4973533;28;20189;-58
2023/11/18 12:17:55;;;;;;;1.92;1.65;;;9.10;98.10;;;;;;4973585;28;20641;-59
2023/11/18 12:20:42;;;;;;;4.38;4.03;;;9.00;97.90;;;;;;4972587;28;20184;-58
2023/11/18 12:23:14;;;;;;;2.25;1.20;;;8.70;97.80;;;;;;4973201;28;20187;-58
2023/11/18 12:25:43;;;;;;;4.18;1.80;;;8.50;98.20;;;;;;4973315;28;20220;-57
2023/11/18 12:28:16;;;;;;;2.45;2.25;;;8.40;98.60;;;;;;4973218;28;20185;-59
2023/11/18 12:30:52;;;;;;;3.35;2.13;;;8.40;98.60;;;;;;4973268;28;20187;-58
2023/11/18 12:33:19;;;;;;;1.98;1.67;;;8.30;98.60;;;;;;4972850;28;20178;-57
2023/11/18 12:36:27;;;;;;;8.32;3.60;;;8.30;99.00;;;;;;4955991;28;20635;-58
2023/11/18 12:39:40;;;;;;;2.17;1.95;;;8.30;99.20;;;;;;4973053;28;20227;-58
2023/11/18 12:42:18;;;;;;;1.60;1.45;;;8.20;99.20;;;;;;4956012;28;20665;-58
2023/11/18 12:45:28;;;;;;;0.82;0.77;;;8.10;99.50;;;;;;4957331;28;20184;-58
2023/11/18 12:47:58;;;;;;;4.47;3.58;;;8.10;99.50;;;;;;4973049;28;20212;-58
2023/11/18 12:50:24;;;;;;;0.50;0.50;;;8.00;99.60;;;;;;4973373;28;20539;-59
2023/11/18 12:52:52;;;;;;;0.80;0.80;;;8.10;99.60;;;;;;4973280;28;20582;-59
2023/11/18 12:55:21;;;;;;;0.60;0.60;;;8.20;99.60;;;;;;4972739;28;20204;-59
2023/11/18 12:57:53;;;;;;;2.15;1.42;;;8.20;99.20;;;;;;4972627;28;20212;-58
2023/11/18 13:00:26;;;;;;;0.75;0.75;;;8.10;99.40;;;;;;4973002;28;20315;-58
2023/11/18 13:02:53;;;;;;;1.15;0.70;;;8.00;99.40;;;;;;4972665;28;20184;-59
2023/11/18 13:05:19;;;;;;;6.00;1.23;;;8.00;99.50;;;;;;4972818;28;20576;-58
2023/11/18 13:07:47;;;;;;;1.23;1.15;;;7.90;99.60;;;;;;4972758;28;20556;-58
2023/11/18 13:10:15;;;;;;;0.73;0.73;;;7.90;99.90;;;;;;4972518;28;20271;-58